createdAt,value
2018-11-22T00:00:24.358Z,8.7
2018-11-22T00:01:24.382Z,8.7
2018-11-22T00:02:24.375Z,8.7
2018-11-22T00:03:24.451Z,8.8
2018-11-22T00:04:24.377Z,8.7
2018-11-22T00:05:24.378Z,8.7
2018-11-22T00:06:24.353Z,9.1
2018-11-22T00:07:24.451Z,9
2018-11-22T00:08:24.361Z,8.9
2018-11-22T00:09:24.371Z,8.9
2018-11-22T00:10:24.445Z,8.8
2018-11-22T00:11:24.435Z,9
2018-11-22T00:12:24.376Z,9.2
2018-11-22T00:13:24.369Z,9.4
2018-11-22T00:14:24.525Z,9.7
2018-11-22T00:15:24.365Z,9.8
2018-11-22T00:16:24.370Z,9.7
2018-11-22T00:17:24.349Z,9.7
2018-11-22T00:18:24.369Z,9.6
2018-11-22T00:19:24.443Z,9.9
2018-11-22T00:20:24.368Z,10.1
2018-11-22T00:21:24.374Z,10.4
2018-11-22T00:22:24.406Z,10.2
2018-11-22T00:23:24.348Z,10.5
2018-11-22T00:24:24.338Z,10.3
2018-11-22T00:25:24.334Z,10.3
2018-11-22T00:26:24.408Z,10
2018-11-22T00:27:24.324Z,9.8
2018-11-22T00:28:24.319Z,10
2018-11-22T00:29:24.343Z,9.9
2018-11-22T00:30:24.337Z,9.8
2018-11-22T00:31:24.413Z,9.7
2018-11-22T00:32:24.340Z,9.9
2018-11-22T00:33:24.320Z,10.2
2018-11-22T00:34:24.393Z,10.5
2018-11-22T00:35:24.346Z,10.2
2018-11-22T00:36:24.333Z,10.3
2018-11-22T00:37:24.329Z,10.1
2018-11-22T00:38:24.371Z,9.9
2018-11-22T00:39:24.372Z,9.8
2018-11-22T00:40:24.334Z,10
2018-11-22T00:41:24.333Z,10.1
2018-11-22T00:42:24.400Z,9.9
2018-11-22T00:43:24.335Z,10
2018-11-22T00:44:24.317Z,10.4
2018-11-22T00:45:24.328Z,10.8
2018-11-22T00:46:24.325Z,11.1
2018-11-22T00:47:24.480Z,10.8
2018-11-22T00:48:24.334Z,10.8
2018-11-22T00:49:24.318Z,11
2018-11-22T00:50:24.318Z,11.4
2018-11-22T00:51:24.332Z,11.3
2018-11-22T00:52:24.401Z,11
2018-11-22T00:53:24.321Z,11.1
2018-11-22T00:54:24.326Z,10.8
2018-11-22T00:55:24.387Z,10.3
2018-11-22T00:56:24.320Z,10.1
2018-11-22T00:57:24.323Z,10.1
2018-11-22T00:58:24.330Z,9.8
2018-11-22T00:59:24.326Z,9.5
2018-11-22T01:00:24.345Z,9.5
2018-11-22T01:01:24.327Z,9.5
2018-11-22T01:02:24.310Z,9.2
2018-11-22T01:03:24.374Z,9.3
2018-11-22T01:04:24.410Z,9.3
2018-11-22T01:05:24.327Z,9.2
2018-11-22T01:06:24.303Z,9.4
2018-11-22T01:07:24.312Z,9.2
2018-11-22T01:08:24.388Z,9.6
2018-11-22T01:09:24.323Z,9.6
2018-11-22T01:10:24.398Z,9.8
2018-11-22T01:11:24.311Z,9.9
2018-11-22T01:12:24.380Z,9.6
2018-11-22T01:13:24.323Z,9.4
2018-11-22T01:14:24.321Z,9.3
2018-11-22T01:15:24.336Z,9
2018-11-22T01:16:24.384Z,9.2
2018-11-22T01:17:24.299Z,8.8
2018-11-22T01:18:24.373Z,8.7
2018-11-22T01:19:24.309Z,9
2018-11-22T01:20:24.300Z,9
2018-11-22T01:21:24.303Z,8.9
2018-11-22T01:22:24.300Z,8.7
2018-11-22T01:23:24.483Z,8.7
2018-11-22T01:24:24.316Z,9.1
2018-11-22T01:25:24.311Z,9.4
2018-11-22T01:26:24.315Z,9.4
2018-11-22T01:27:24.295Z,9.5
2018-11-22T01:28:24.370Z,9.8
2018-11-22T01:29:24.303Z,9.8
2018-11-22T01:30:24.295Z,9.8
2018-11-22T01:31:24.309Z,9.7
2018-11-22T01:32:24.313Z,10.1
2018-11-22T01:33:24.366Z,10.2
2018-11-22T01:34:24.310Z,10.2
2018-11-22T01:35:24.309Z,10.2
2018-11-22T01:36:24.307Z,10.3
2018-11-22T01:37:24.311Z,10.2
2018-11-22T01:38:24.372Z,10.2
2018-11-22T01:39:24.307Z,10.2
2018-11-22T01:40:24.308Z,10.4
2018-11-22T01:41:24.382Z,10.7
2018-11-22T01:42:24.310Z,10.7
2018-11-22T01:43:24.378Z,10.7
2018-11-22T01:44:24.279Z,10.7
2018-11-22T01:45:24.306Z,11.1
2018-11-22T01:46:24.296Z,10.9
2018-11-22T01:47:24.306Z,10.8
2018-11-22T01:48:24.372Z,10.6
2018-11-22T01:49:24.289Z,10.7
2018-11-22T01:50:24.362Z,10.8
2018-11-22T01:51:24.301Z,10.6
2018-11-22T01:52:24.291Z,10.6
2018-11-22T01:53:24.370Z,10.7
2018-11-22T01:54:24.305Z,10.6
2018-11-22T01:55:24.327Z,10.1
2018-11-22T01:56:24.297Z,10.4
2018-11-22T01:57:24.302Z,10
2018-11-22T01:58:24.296Z,9.6
2018-11-22T01:59:24.375Z,9.8
2018-11-22T02:00:24.276Z,9.6
2018-11-22T02:01:24.286Z,9.3
2018-11-22T02:02:24.362Z,9.3
2018-11-22T02:03:24.435Z,9.4
2018-11-22T02:04:24.301Z,9.3
2018-11-22T02:05:24.283Z,9.2
2018-11-22T02:06:24.268Z,9.4
2018-11-22T02:07:24.353Z,9.2
2018-11-22T02:08:24.299Z,9.3
2018-11-22T02:09:24.372Z,9.3
2018-11-22T02:10:24.288Z,9.4
2018-11-22T02:11:24.271Z,9.2
2018-11-22T02:12:24.275Z,9.2
2018-11-22T02:13:24.370Z,9.6
2018-11-22T02:14:24.294Z,9.7
2018-11-22T02:15:24.279Z,9.7
2018-11-22T02:16:24.276Z,9.7
2018-11-22T02:17:24.266Z,9.9
2018-11-22T02:18:24.451Z,9.5
2018-11-22T02:19:24.282Z,9.4
2018-11-22T02:20:24.278Z,9.5
2018-11-22T02:21:24.291Z,9.3
2018-11-22T02:22:24.255Z,9.4
2018-11-22T02:23:24.351Z,9.8
2018-11-22T02:24:24.295Z,9.6
2018-11-22T02:25:24.363Z,9.6
2018-11-22T02:26:24.284Z,9.4
2018-11-22T02:27:24.323Z,9.7
2018-11-22T02:28:24.274Z,9.4
2018-11-22T02:29:24.359Z,9.2
2018-11-22T02:30:24.272Z,9.2
2018-11-22T02:31:24.348Z,8.9
2018-11-22T02:32:24.274Z,8.8
2018-11-22T02:33:24.270Z,9
2018-11-22T02:34:24.354Z,9
2018-11-22T02:35:24.273Z,9.3
2018-11-22T02:36:24.287Z,9.2
2018-11-22T02:37:24.390Z,9
2018-11-22T02:38:24.259Z,9
2018-11-22T02:39:24.250Z,9
2018-11-22T02:40:24.354Z,9.3
2018-11-22T02:41:24.278Z,8.9
2018-11-22T02:42:24.285Z,9.1
2018-11-22T02:43:24.270Z,9.2
2018-11-22T02:44:24.327Z,9
2018-11-22T02:45:24.305Z,8.4
2018-11-22T02:46:24.279Z,8.4
2018-11-22T02:47:24.283Z,8.2
2018-11-22T02:48:24.274Z,8
2018-11-22T02:49:24.325Z,7.7
2018-11-22T02:50:24.275Z,7.5
2018-11-22T02:51:24.274Z,7.5
2018-11-22T02:52:24.274Z,7.3
2018-11-22T02:53:24.270Z,6.9
2018-11-22T02:54:24.331Z,7.1
2018-11-22T02:55:24.280Z,7.2
2018-11-22T02:56:24.273Z,7.1
2018-11-22T02:57:24.284Z,7.3
2018-11-22T02:58:24.273Z,7
2018-11-22T02:59:24.346Z,7.2
2018-11-22T03:00:24.241Z,7.7
2018-11-22T03:01:24.268Z,7.9
2018-11-22T03:02:24.272Z,8.1
2018-11-22T03:03:24.325Z,7.8
2018-11-22T03:04:24.253Z,7.6
2018-11-22T03:05:24.316Z,7.5
2018-11-22T03:06:24.340Z,7.5
2018-11-22T03:07:24.275Z,7.3
2018-11-22T03:08:24.256Z,7.1
2018-11-22T03:09:24.343Z,6.9
2018-11-22T03:10:24.323Z,7.1
2018-11-22T03:11:24.250Z,7.3
2018-11-22T03:12:24.254Z,7
2018-11-22T03:13:24.320Z,6.6
2018-11-22T03:14:24.318Z,6.7
2018-11-22T03:15:24.267Z,6.8
2018-11-22T03:16:24.251Z,6.6
2018-11-22T03:17:24.247Z,6.5
2018-11-22T03:18:24.333Z,6.7
2018-11-22T03:19:24.265Z,6.8
2018-11-22T03:20:24.271Z,7.3
2018-11-22T03:21:24.319Z,7.5
2018-11-22T03:22:24.244Z,7.9
2018-11-22T03:23:24.259Z,7.9
2018-11-22T03:24:24.311Z,7.6
2018-11-22T03:25:24.269Z,7.5
2018-11-22T03:26:24.265Z,7.8
2018-11-22T03:27:24.298Z,7.4
2018-11-22T03:28:24.296Z,7.4
2018-11-22T03:29:24.329Z,7.5
2018-11-22T03:30:24.257Z,7.7
2018-11-22T03:31:24.328Z,7.7
2018-11-22T03:32:24.257Z,7.6
2018-11-22T03:33:24.243Z,7.5
2018-11-22T03:34:24.256Z,7.1
2018-11-22T03:35:24.255Z,6.8
2018-11-22T03:36:24.305Z,6.7
2018-11-22T03:37:24.261Z,6.9
2018-11-22T03:38:24.312Z,7.1
2018-11-22T03:39:24.261Z,7.2
2018-11-22T03:40:24.250Z,7.1
2018-11-22T03:41:24.249Z,7.1
2018-11-22T03:42:24.365Z,6.5
2018-11-22T03:43:24.277Z,6.4
2018-11-22T03:44:24.237Z,5.9
2018-11-22T03:45:24.258Z,5.5
2018-11-22T03:46:24.251Z,5.3
2018-11-22T03:47:24.294Z,4.9
2018-11-22T03:48:24.328Z,5.2
2018-11-22T03:49:24.227Z,5.5
2018-11-22T03:50:24.258Z,5.6
2018-11-22T03:51:24.253Z,5.4
2018-11-22T03:52:24.254Z,5.5
2018-11-22T03:53:24.304Z,5.4
2018-11-22T03:54:24.239Z,5.6
2018-11-22T03:55:24.334Z,5.5
2018-11-22T03:56:24.230Z,5.5
2018-11-22T03:57:24.245Z,5.6
2018-11-22T03:58:24.243Z,5.6
2018-11-22T03:59:24.297Z,5.6
2018-11-22T04:00:24.288Z,5.9
2018-11-22T04:01:24.241Z,6.1
2018-11-22T04:02:24.310Z,6.1
2018-11-22T04:03:24.241Z,6.1
2018-11-22T04:04:24.228Z,6
2018-11-22T04:05:24.215Z,5.9
2018-11-22T04:06:24.321Z,6.4
2018-11-22T04:07:25.294Z,6.4
2018-11-22T04:08:24.244Z,6.1
2018-11-22T04:09:24.233Z,6.1
2018-11-22T04:10:24.243Z,6.6
2018-11-22T04:11:24.230Z,7.2
2018-11-22T04:12:24.243Z,7.6
2018-11-22T04:13:24.236Z,7.6
2018-11-22T04:14:24.241Z,8.1
2018-11-22T04:15:24.322Z,8
2018-11-22T04:16:24.232Z,7.9
2018-11-22T04:17:24.236Z,7.7
2018-11-22T04:18:24.235Z,7.9
2018-11-22T04:19:24.240Z,8.2
2018-11-22T04:20:24.314Z,8.2
2018-11-22T04:21:24.288Z,7.9
2018-11-22T04:22:24.218Z,7.5
2018-11-22T04:23:24.240Z,7.4
2018-11-22T04:24:24.239Z,7.4
2018-11-22T04:25:24.269Z,7.8
2018-11-22T04:26:24.293Z,7.7
2018-11-22T04:27:24.218Z,7.4
2018-11-22T04:28:24.340Z,7.3
2018-11-22T04:29:24.234Z,6.9
2018-11-22T04:30:24.233Z,7.3
2018-11-22T04:31:24.226Z,7.4
2018-11-22T04:32:24.235Z,7.5
2018-11-22T04:33:24.277Z,7.5
2018-11-22T04:34:24.218Z,8
2018-11-22T04:35:24.224Z,7.8
2018-11-22T04:36:24.300Z,8
2018-11-22T04:37:24.211Z,8
2018-11-22T04:38:24.220Z,7.9
2018-11-22T04:39:24.275Z,7.8
2018-11-22T04:40:24.220Z,7.5
2018-11-22T04:41:24.228Z,7.7
2018-11-22T04:42:24.210Z,7.6
2018-11-22T04:43:24.209Z,7.3
2018-11-22T04:44:24.284Z,6.8
2018-11-22T04:45:24.227Z,6.7
2018-11-22T04:46:24.220Z,6.5
2018-11-22T04:47:24.288Z,6.9
2018-11-22T04:48:24.276Z,6.7
2018-11-22T04:49:24.281Z,7.3
2018-11-22T04:50:24.292Z,7.4
2018-11-22T04:51:24.221Z,7.2
2018-11-22T04:52:24.290Z,7.1
2018-11-22T04:53:24.203Z,7.3
2018-11-22T04:54:24.207Z,7
2018-11-22T04:55:24.213Z,7.3
2018-11-22T04:56:24.209Z,7.6
2018-11-22T04:57:24.293Z,7.4
2018-11-22T04:58:24.218Z,7.2
2018-11-22T04:59:24.218Z,7.4
2018-11-22T05:00:24.258Z,7.5
2018-11-22T05:01:24.216Z,7.7
2018-11-22T05:02:24.222Z,7.6
2018-11-22T05:03:24.215Z,7.6
2018-11-22T05:04:24.547Z,7.8
2018-11-22T05:05:24.203Z,7.5
2018-11-22T05:06:24.194Z,7.5
2018-11-22T05:07:24.199Z,7.5
2018-11-22T05:08:24.196Z,7.5
2018-11-22T05:09:24.282Z,7.6
2018-11-22T05:10:24.269Z,7.4
2018-11-22T05:11:24.198Z,7.3
2018-11-22T05:12:24.212Z,7.3
2018-11-22T05:13:24.278Z,6.9
2018-11-22T05:14:24.208Z,7.1
2018-11-22T05:15:24.207Z,7.3
2018-11-22T05:16:24.198Z,7.2
2018-11-22T05:17:24.249Z,6.9
2018-11-22T05:18:24.210Z,7.3
2018-11-22T05:19:24.457Z,7.3
2018-11-22T05:20:24.275Z,7.1
2018-11-22T05:21:24.211Z,6.7
2018-11-22T05:22:24.197Z,6.9
2018-11-22T05:23:24.207Z,6.8
2018-11-22T05:24:24.207Z,6.5
2018-11-22T05:25:24.273Z,6.6
2018-11-22T05:26:24.199Z,6.8
2018-11-22T05:27:24.195Z,6.5
2018-11-22T05:28:24.213Z,6.7
2018-11-22T05:29:24.206Z,6.7
2018-11-22T05:30:24.269Z,6.8
2018-11-22T05:31:24.217Z,6.8
2018-11-22T05:32:28.980Z,6.4
2018-11-22T05:33:24.257Z,6.1
2018-11-22T05:34:24.195Z,5.8
2018-11-22T05:35:24.257Z,5.7
2018-11-22T05:36:24.196Z,5.5
2018-11-22T05:37:24.464Z,5.4
2018-11-22T05:38:24.256Z,5.2
2018-11-22T05:39:24.305Z,4.9
2018-11-22T05:40:24.205Z,5.1
2018-11-22T05:41:24.196Z,5.4
2018-11-22T05:42:24.169Z,5.4
2018-11-22T05:43:24.203Z,5
2018-11-22T05:44:24.260Z,4.9
2018-11-22T05:45:24.195Z,5.3
2018-11-22T05:46:24.184Z,5.5
2018-11-22T05:47:24.593Z,5.6
2018-11-22T05:48:24.168Z,5.5
2018-11-22T05:49:24.287Z,5.6
2018-11-22T05:50:24.175Z,5.7
2018-11-22T05:51:24.189Z,5.4
2018-11-22T05:52:24.170Z,5.5
2018-11-22T05:53:24.221Z,5.3
2018-11-22T05:54:24.241Z,5.3
2018-11-22T05:55:24.166Z,5.4
2018-11-22T05:56:24.187Z,5.6
2018-11-22T05:57:24.182Z,5.3
2018-11-22T05:58:24.199Z,5.4
2018-11-22T05:59:24.263Z,5.5
2018-11-22T06:00:24.175Z,5.5
2018-11-22T06:01:24.185Z,5.4
2018-11-22T06:02:24.180Z,5.5
2018-11-22T06:03:24.263Z,5.3
2018-11-22T06:04:24.215Z,5.2
2018-11-22T06:05:24.175Z,5.2
2018-11-22T06:06:24.277Z,5.4
2018-11-22T06:07:24.238Z,5.3
2018-11-22T06:08:24.192Z,5.1
2018-11-22T06:09:24.184Z,4.7
2018-11-22T06:10:24.176Z,5
2018-11-22T06:11:24.247Z,5.1
2018-11-22T06:12:24.199Z,4.7
2018-11-22T06:13:24.236Z,4.4
2018-11-22T06:14:24.181Z,4.6
2018-11-22T06:15:24.185Z,4.6
2018-11-22T06:16:24.245Z,4.6
2018-11-22T06:17:24.173Z,4.3
2018-11-22T06:18:24.177Z,4.7
2018-11-22T06:19:24.164Z,5
2018-11-22T06:20:24.235Z,4.8
2018-11-22T06:21:24.182Z,4.5
2018-11-22T06:22:26.552Z,4.4
2018-11-22T06:23:24.209Z,4.6
2018-11-22T06:24:24.810Z,4.5
2018-11-22T06:25:24.162Z,4.4
2018-11-22T06:26:24.172Z,4
2018-11-22T06:27:24.158Z,4.1
2018-11-22T06:28:24.174Z,4.1
2018-11-22T06:29:24.420Z,4
2018-11-22T06:30:24.446Z,3.8
2018-11-22T06:31:25.223Z,3.7
2018-11-22T06:32:24.162Z,3.5
2018-11-22T06:33:24.392Z,3.6
2018-11-22T06:34:24.238Z,3.4
2018-11-22T06:35:24.301Z,3.5
2018-11-22T06:36:24.260Z,3.6
2018-11-22T06:37:25.510Z,3.6
2018-11-22T06:38:24.211Z,3.8
2018-11-22T06:39:24.407Z,4
2018-11-22T06:40:24.170Z,4
2018-11-22T06:41:24.295Z,4
2018-11-22T06:42:24.315Z,3.8
2018-11-22T06:43:25.836Z,3.6
2018-11-22T06:44:24.679Z,3.8
2018-11-22T06:45:24.177Z,3.8
2018-11-22T06:46:24.229Z,3.7
2018-11-22T06:47:24.184Z,3.8
2018-11-22T06:48:24.283Z,3.9
2018-11-22T06:49:24.218Z,3.7
2018-11-22T06:50:24.229Z,3.8
2018-11-22T06:51:24.382Z,3.8
2018-11-22T06:52:24.529Z,3.9
2018-11-22T06:53:24.445Z,4.1
2018-11-22T06:54:24.485Z,4.4
2018-11-22T06:55:24.256Z,4.6
2018-11-22T06:56:24.273Z,4.6
2018-11-22T06:57:24.436Z,4.6
2018-11-22T06:58:24.285Z,4.6
2018-11-22T06:59:24.321Z,4.6
2018-11-22T07:00:24.255Z,4.8
2018-11-22T07:01:24.350Z,4.9
2018-11-22T07:02:24.170Z,4.7
2018-11-22T07:03:24.263Z,5
2018-11-22T07:04:24.316Z,5
2018-11-22T07:05:24.234Z,4.9
2018-11-22T07:06:24.259Z,5.1
2018-11-22T07:07:25.288Z,5.3
2018-11-22T07:08:24.214Z,5.1
2018-11-22T07:09:24.132Z,5
2018-11-22T07:10:26.601Z,5.1
2018-11-22T07:11:24.180Z,5.1
2018-11-22T07:12:24.463Z,5
2018-11-22T07:13:24.178Z,4.7
2018-11-22T07:14:24.371Z,4.6
2018-11-22T07:15:24.147Z,4.9
2018-11-22T07:16:24.217Z,5
2018-11-22T07:17:24.631Z,5
2018-11-22T07:18:24.190Z,5
2018-11-22T07:19:24.131Z,5
2018-11-22T07:20:24.150Z,5.2
2018-11-22T07:21:24.339Z,5.2
2018-11-22T07:22:24.229Z,5.1
2018-11-22T07:23:24.162Z,5.3
2018-11-22T07:24:24.276Z,5
2018-11-22T07:25:24.361Z,5
2018-11-22T07:26:24.190Z,4.9
2018-11-22T07:27:24.159Z,4.8
2018-11-22T07:28:24.470Z,4.8
2018-11-22T07:29:24.159Z,4.6
2018-11-22T07:30:24.172Z,4.7
2018-11-22T07:31:24.156Z,4.6
2018-11-22T07:32:24.223Z,4.3
2018-11-22T07:33:26.178Z,4.2
2018-11-22T07:34:24.156Z,4
2018-11-22T07:35:24.234Z,3.9
2018-11-22T07:36:24.119Z,4
2018-11-22T07:37:24.174Z,4.1
2018-11-22T07:38:24.185Z,4.6
2018-11-22T07:39:24.127Z,4.8
2018-11-22T07:40:24.215Z,4.9
2018-11-22T07:41:24.200Z,4.8
2018-11-22T07:42:24.141Z,4.7
2018-11-22T07:43:24.130Z,4.6
2018-11-22T07:44:24.122Z,4.5
2018-11-22T07:45:24.203Z,4.8
2018-11-22T07:46:24.183Z,4.6
2018-11-22T07:47:24.291Z,4.3
2018-11-22T07:48:24.123Z,4.1
2018-11-22T07:49:24.248Z,3.9
2018-11-22T07:50:24.208Z,4
2018-11-22T07:51:24.142Z,4.2
2018-11-22T07:52:24.285Z,4.6
2018-11-22T07:53:24.137Z,4.7
2018-11-22T07:54:24.168Z,4.9
2018-11-22T07:55:25.368Z,5
2018-11-22T07:56:24.569Z,4.8
2018-11-22T07:57:25.195Z,4.7
2018-11-22T07:58:24.159Z,4.8
2018-11-22T07:59:24.205Z,4.9
2018-11-22T08:00:24.137Z,4.7
2018-11-22T08:01:24.159Z,5
2018-11-22T08:02:25.544Z,5
2018-11-22T08:03:24.266Z,5.2
2018-11-22T08:04:24.150Z,5
2018-11-22T08:05:24.143Z,5
2018-11-22T08:06:24.210Z,5.3
2018-11-22T08:07:24.786Z,4.9
2018-11-22T08:08:26.509Z,4.7
2018-11-22T08:09:24.122Z,4.7
2018-11-22T08:10:24.879Z,4.6
2018-11-22T08:11:24.186Z,4.5
2018-11-22T08:12:25.904Z,4.5
2018-11-22T08:13:24.898Z,4.4
2018-11-22T08:14:24.107Z,4.6
2018-11-22T08:15:24.133Z,4.7
2018-11-22T08:16:25.660Z,4.8
2018-11-22T08:17:24.605Z,4.7
2018-11-22T08:18:25.495Z,5
2018-11-22T08:19:24.108Z,4.9
2018-11-22T08:20:24.177Z,4.6
2018-11-22T08:21:24.122Z,4.3
2018-11-22T08:22:24.096Z,4.3
2018-11-22T08:23:24.116Z,4.1
2018-11-22T08:24:24.186Z,4.2
2018-11-22T08:25:24.107Z,4.1
2018-11-22T08:26:24.099Z,4.3
2018-11-22T08:27:24.104Z,4.2
2018-11-22T08:28:24.101Z,4.1
2018-11-22T08:29:24.191Z,3.9
2018-11-22T08:30:24.119Z,3.6
2018-11-22T08:31:24.125Z,4.3
2018-11-22T08:32:24.099Z,4.4
2018-11-22T08:33:24.110Z,4.8
2018-11-22T08:34:24.191Z,5.1
2018-11-22T08:35:24.109Z,5
2018-11-22T08:36:24.111Z,4.9
2018-11-22T08:37:24.108Z,4.6
2018-11-22T08:38:24.094Z,4.8
2018-11-22T08:39:24.105Z,5.1
2018-11-22T08:40:24.102Z,5.3
2018-11-22T08:41:24.096Z,5.7
2018-11-22T08:42:24.104Z,5.5
2018-11-22T08:43:24.079Z,5.1
2018-11-22T08:44:24.090Z,4.8
2018-11-22T08:45:24.182Z,5
2018-11-22T08:46:24.160Z,5.1
2018-11-22T08:47:24.180Z,5.7
2018-11-22T08:48:24.103Z,6.1
2018-11-22T08:49:24.092Z,6.2
2018-11-22T08:50:24.101Z,6
2018-11-22T08:51:24.237Z,6
2018-11-22T08:52:24.099Z,5.8
2018-11-22T08:53:24.099Z,6
2018-11-22T08:54:24.092Z,6.5
2018-11-22T08:55:24.656Z,6.7
2018-11-22T08:56:24.313Z,6.5
2018-11-22T08:57:24.084Z,6.7
2018-11-22T08:58:24.104Z,6.4
2018-11-22T08:59:24.087Z,6.9
2018-11-22T09:00:24.098Z,7
2018-11-22T09:01:24.180Z,6.7
2018-11-22T09:02:24.102Z,7.3
2018-11-22T09:03:24.117Z,7.5
2018-11-22T09:04:24.106Z,7.6
2018-11-22T09:05:24.231Z,7.3
2018-11-22T09:06:24.163Z,7.4
2018-11-22T09:07:24.105Z,7.3
2018-11-22T09:08:24.178Z,7.2
2018-11-22T09:09:24.093Z,8
2018-11-22T09:10:24.097Z,7.8
2018-11-22T09:11:24.078Z,7.6
2018-11-22T09:12:24.094Z,7.9
2018-11-22T09:13:24.183Z,7.8
2018-11-22T09:14:24.168Z,8.1
2018-11-22T09:15:24.169Z,8
2018-11-22T09:16:24.076Z,7.9
2018-11-22T09:17:24.096Z,8.1
2018-11-22T09:18:24.080Z,8
2018-11-22T09:19:24.092Z,7.5
2018-11-22T09:20:24.168Z,7.5
2018-11-22T09:21:24.072Z,7.3
2018-11-22T09:22:24.163Z,7.3
2018-11-22T09:23:24.080Z,7.3
2018-11-22T09:24:24.411Z,8.1
2018-11-22T09:25:24.171Z,8
2018-11-22T09:26:24.147Z,7.7
2018-11-22T09:27:24.146Z,7.4
2018-11-22T09:28:24.088Z,7.4
2018-11-22T09:29:24.160Z,7.8
2018-11-22T09:30:24.085Z,8.3
2018-11-22T09:31:24.089Z,8.3
2018-11-22T09:32:24.070Z,7.8
2018-11-22T09:33:24.072Z,7.9
2018-11-22T09:34:24.162Z,7.5
2018-11-22T09:35:24.216Z,7.8
2018-11-22T09:36:24.179Z,7.8
2018-11-22T09:37:24.199Z,7.8
2018-11-22T09:38:24.050Z,7.7
2018-11-22T09:39:24.158Z,7.6
2018-11-22T09:40:24.153Z,7.3
2018-11-22T09:41:24.080Z,7.4
2018-11-22T09:42:24.120Z,7.5
2018-11-22T09:43:24.062Z,7.3
2018-11-22T09:44:24.153Z,7.4
2018-11-22T09:45:24.156Z,7.5
2018-11-22T09:46:24.326Z,7.7
2018-11-22T09:47:24.074Z,7.9
2018-11-22T09:48:24.073Z,7.7
2018-11-22T09:49:24.052Z,7.6
2018-11-22T09:50:24.066Z,7.3
2018-11-22T09:51:24.150Z,7.3
2018-11-22T09:52:24.050Z,7.4
2018-11-22T09:53:24.054Z,7.3
2018-11-22T09:54:24.060Z,7.2
2018-11-22T09:55:24.067Z,7.1
2018-11-22T09:56:24.136Z,7.2
2018-11-22T09:57:24.067Z,7
2018-11-22T09:58:24.140Z,6.8
2018-11-22T09:59:24.069Z,7
2018-11-22T10:00:24.051Z,7.3
2018-11-22T10:01:24.145Z,7.2
2018-11-22T10:02:24.073Z,7.3
2018-11-22T10:03:24.071Z,7
2018-11-22T10:04:24.059Z,6.9
2018-11-22T10:05:24.105Z,6.9
2018-11-22T10:06:24.136Z,6.7
2018-11-22T10:07:24.054Z,7
2018-11-22T10:08:24.152Z,7
2018-11-22T10:09:24.138Z,7.2
2018-11-22T10:10:24.062Z,7
2018-11-22T10:11:24.116Z,6.9
2018-11-22T10:12:24.074Z,6.4
2018-11-22T10:13:24.059Z,6.8
2018-11-22T10:14:24.068Z,7.1
2018-11-22T10:15:24.117Z,6.9
2018-11-22T10:16:24.039Z,7
2018-11-22T10:17:24.126Z,7.3
2018-11-22T10:18:24.072Z,7.2
2018-11-22T10:19:24.126Z,7.2
2018-11-22T10:20:24.046Z,7
2018-11-22T10:21:24.037Z,6.9
2018-11-22T10:22:24.042Z,6.8
2018-11-22T10:23:24.053Z,6.8
2018-11-22T10:24:24.268Z,7
2018-11-22T10:25:24.048Z,6.9
2018-11-22T10:26:24.051Z,7.3
2018-11-22T10:27:24.034Z,7.2
2018-11-22T10:28:24.052Z,7
2018-11-22T10:29:24.241Z,7
2018-11-22T10:30:24.124Z,7.5
2018-11-22T10:31:24.051Z,7.7
2018-11-22T10:32:24.037Z,7.6
2018-11-22T10:33:24.041Z,7.6
2018-11-22T10:34:24.102Z,7.6
2018-11-22T10:35:24.074Z,7.3
2018-11-22T10:36:24.043Z,7
2018-11-22T10:37:24.045Z,6.9
2018-11-22T10:38:24.095Z,6.3
2018-11-22T10:39:24.049Z,6.2
2018-11-22T10:40:24.038Z,6.1
2018-11-22T10:41:24.028Z,6.4
2018-11-22T10:42:24.083Z,6.3
2018-11-22T10:43:24.126Z,6.5
2018-11-22T10:44:24.030Z,6.4
2018-11-22T10:45:24.048Z,6.2
2018-11-22T10:46:24.045Z,5.8
2018-11-22T10:47:24.040Z,5.6
2018-11-22T10:48:24.085Z,5.6
2018-11-22T10:49:24.070Z,6.2
2018-11-22T10:50:24.045Z,6.2
2018-11-22T10:51:24.090Z,6.2
2018-11-22T10:52:24.029Z,6.2
2018-11-22T10:53:24.037Z,6
2018-11-22T10:54:24.083Z,6.5
2018-11-22T10:55:24.020Z,6.3
2018-11-22T10:56:24.037Z,6.5
2018-11-22T10:57:24.051Z,6.6
2018-11-22T10:58:24.088Z,6.8
2018-11-22T10:59:24.145Z,6.9
2018-11-22T11:00:24.006Z,6.9
2018-11-22T11:01:24.020Z,7.1
2018-11-22T11:02:24.022Z,7.1
2018-11-22T11:03:24.033Z,7.6
2018-11-22T11:04:24.097Z,7.2
2018-11-22T11:05:24.081Z,6.8
2018-11-22T11:06:24.030Z,6.5
2018-11-22T11:07:24.027Z,6.1
2018-11-22T11:08:24.024Z,5.8
2018-11-22T11:09:24.102Z,5.7
2018-11-22T11:10:24.165Z,5.7
2018-11-22T11:11:24.016Z,6
2018-11-22T11:12:25.452Z,6.6
2018-11-22T11:13:24.017Z,6.6
2018-11-22T11:14:24.015Z,6.6
2018-11-22T11:15:24.106Z,6.6
2018-11-22T11:16:24.077Z,6.7
2018-11-22T11:17:24.013Z,7.2
2018-11-22T11:18:24.031Z,7.1
2018-11-22T11:19:24.024Z,6.8
2018-11-22T11:20:24.020Z,6.6
2018-11-22T11:21:24.078Z,6.4
2018-11-22T11:22:24.158Z,6.3
2018-11-22T11:23:24.010Z,6.2
2018-11-22T11:24:24.277Z,6.1
2018-11-22T11:25:24.016Z,6.4
2018-11-22T11:26:24.031Z,6.6
2018-11-22T11:27:24.083Z,6.6
2018-11-22T11:28:24.023Z,6.8
2018-11-22T11:29:24.084Z,6.7
2018-11-22T11:30:24.019Z,6.6
2018-11-22T11:31:24.016Z,7
2018-11-22T11:32:24.004Z,7.2
2018-11-22T11:33:23.996Z,7.1
2018-11-22T11:34:24.003Z,7.1
2018-11-22T11:35:24.011Z,6.5
2018-11-22T11:36:24.092Z,6.3
2018-11-22T11:37:24.016Z,6.4
2018-11-22T11:38:24.013Z,6.4
2018-11-22T11:39:24.009Z,6
2018-11-22T11:40:24.079Z,6
2018-11-22T11:41:23.994Z,6
2018-11-22T11:42:24.197Z,5.8
2018-11-22T11:43:24.001Z,5.7
2018-11-22T11:44:24.000Z,5.9
2018-11-22T11:45:24.006Z,6
2018-11-22T11:46:24.000Z,6
2018-11-22T11:47:24.064Z,6.1
2018-11-22T11:48:24.007Z,5.9
2018-11-22T11:49:23.982Z,5.8
2018-11-22T11:50:24.066Z,5.9
2018-11-22T11:51:23.996Z,5.6
2018-11-22T11:52:24.009Z,5.4
2018-11-22T11:53:27.148Z,5.4
2018-11-22T11:54:23.989Z,5.2
2018-11-22T11:55:23.995Z,5.1
2018-11-22T11:56:24.001Z,5.1
2018-11-22T11:57:24.053Z,4.9
2018-11-22T11:58:24.001Z,4.7
2018-11-22T11:59:24.058Z,4.4
2018-11-22T12:00:23.990Z,4
2018-11-22T12:01:23.994Z,4
2018-11-22T12:02:24.057Z,4.1
2018-11-22T12:03:23.983Z,4.2
2018-11-22T12:04:24.002Z,4.3
2018-11-22T12:05:23.971Z,4.4
2018-11-22T12:06:24.058Z,4.4
2018-11-22T12:07:23.998Z,4.6
2018-11-22T12:08:23.990Z,4.3
2018-11-22T12:09:23.996Z,4.1
2018-11-22T12:10:24.027Z,3.9
2018-11-22T12:11:23.981Z,3.9
2018-11-22T12:12:23.991Z,3.7
2018-11-22T12:13:24.247Z,3.6
2018-11-22T12:14:23.999Z,3.6
2018-11-22T12:15:23.996Z,3.7
2018-11-22T12:16:23.966Z,4.2
2018-11-22T12:17:23.984Z,4.4
2018-11-22T12:18:24.048Z,4.6
2018-11-22T12:19:23.987Z,5
2018-11-22T12:20:23.988Z,5.3
2018-11-22T12:21:23.976Z,5.3
2018-11-22T12:22:23.980Z,5.1
2018-11-22T12:23:24.054Z,5.5
2018-11-22T12:24:23.987Z,5.8
2018-11-22T12:25:23.986Z,6
2018-11-22T12:26:23.982Z,6.4
2018-11-22T12:27:23.970Z,6.5
2018-11-22T12:28:24.116Z,6.9
2018-11-22T12:29:23.993Z,7.5
2018-11-22T12:30:23.972Z,8.1
2018-11-22T12:31:23.976Z,8.5
2018-11-22T12:32:23.971Z,8.2
2018-11-22T12:33:24.039Z,8.1
2018-11-22T12:34:24.061Z,8.3
2018-11-22T12:35:23.975Z,8.1
2018-11-22T12:36:23.976Z,8.2
2018-11-22T12:37:23.969Z,8.3
2018-11-22T12:38:24.041Z,8.1
2018-11-22T12:39:23.977Z,8.3
2018-11-22T12:40:23.979Z,8.8
2018-11-22T12:41:24.044Z,8.8
2018-11-22T12:42:23.967Z,9
2018-11-22T12:43:23.957Z,8.5
2018-11-22T12:44:23.983Z,8.7
2018-11-22T12:45:23.965Z,8.6
2018-11-22T12:46:24.039Z,8.3
2018-11-22T12:47:23.972Z,8.2
2018-11-22T12:48:23.981Z,8.3
2018-11-22T12:49:23.959Z,7.8
2018-11-22T12:50:23.970Z,7.8
2018-11-22T12:51:24.033Z,8.1
2018-11-22T12:52:23.956Z,8.3
2018-11-22T12:53:23.967Z,8
2018-11-22T12:54:23.997Z,8
2018-11-22T12:55:24.044Z,7.4
2018-11-22T12:56:23.958Z,7.1
2018-11-22T12:57:23.966Z,6.8
2018-11-22T12:58:23.982Z,6.7
2018-11-22T12:59:23.960Z,6.6
2018-11-22T13:00:24.014Z,6.6
2018-11-22T13:01:23.966Z,6.3
2018-11-22T13:02:23.973Z,5.9
2018-11-22T13:03:24.061Z,5.7
2018-11-22T13:04:23.966Z,5.4
2018-11-22T13:05:23.947Z,5.5
2018-11-22T13:06:23.958Z,5.9
2018-11-22T13:07:23.963Z,5.8
2018-11-22T13:08:24.027Z,5.5
2018-11-22T13:09:23.966Z,5.3
2018-11-22T13:10:23.976Z,5.2
2018-11-22T13:11:24.017Z,5.3
2018-11-22T13:12:23.965Z,5.5
2018-11-22T13:13:23.950Z,5.4
2018-11-22T13:14:24.027Z,5.5
2018-11-22T13:15:23.964Z,5.3
2018-11-22T13:16:23.945Z,5.6
2018-11-22T13:17:23.967Z,5.7
2018-11-22T13:18:24.018Z,6.1
2018-11-22T13:19:23.956Z,5.9
2018-11-22T13:20:23.965Z,5.8
2018-11-22T13:21:24.013Z,6
2018-11-22T13:22:23.943Z,6.2
2018-11-22T13:23:23.956Z,6.5
2018-11-22T13:24:24.032Z,6.2
2018-11-22T13:25:23.953Z,6.2
2018-11-22T13:26:24.030Z,5.9
2018-11-22T13:27:23.941Z,5.9
2018-11-22T13:28:24.030Z,5.6
2018-11-22T13:29:23.956Z,5.6
2018-11-22T13:30:24.020Z,5.5
2018-11-22T13:31:23.946Z,5.6
2018-11-22T13:32:23.942Z,5.7
2018-11-22T13:33:23.948Z,6
2018-11-22T13:34:23.953Z,6.2
2018-11-22T13:35:24.006Z,6.2
2018-11-22T13:36:23.948Z,6.4
2018-11-22T13:37:24.009Z,6.3
2018-11-22T13:38:23.940Z,6.5
2018-11-22T13:39:23.946Z,6.9
2018-11-22T13:40:25.901Z,7.1
2018-11-22T13:41:23.945Z,7.5
2018-11-22T13:42:23.932Z,7.4
2018-11-22T13:43:23.925Z,7.5
2018-11-22T13:44:23.942Z,7.6
2018-11-22T13:45:24.012Z,7.7
2018-11-22T13:46:24.009Z,7.8
2018-11-22T13:47:23.945Z,7.9
2018-11-22T13:48:23.921Z,8.4
2018-11-22T13:49:23.922Z,8.3
2018-11-22T13:50:24.010Z,8.4